Time;durP1;ratioP1;P1;durP2;ratioP2;P2;SDS_P1;SDS_P2;PMS_P1;PMS_P2;Temp;Humidity;BMP_temperature;BMP_pressure;BME280_temperature;BME280_humidity;BME280_pressure;Samples;Min_cycle;Max_cycle;Signal;HPM_P1;HPM_P2
2021/05/23 00:00:37;;;;;;;5.90;3.13;;;;;;;;;;5012201;28;20821;-71
2021/05/23 00:03:06;;;;;;;4.17;3.03;;;;;;;;;;5016776;28;20899;-72
2021/05/23 00:05:32;;;;;;;5.97;3.60;;;;;;;;;;5021293;28;20451;-73
2021/05/23 00:08:04;;;;;;;4.47;3.47;;;;;;;;;;5026486;28;20456;-71
2021/05/23 00:10:32;;;;;;;3.73;3.17;;;;;;;;;;5030869;28;20500;-73
2021/05/23 00:13:00;;;;;;;5.13;3.30;;;;;;;;;;5030230;28;20444;-71
2021/05/23 00:15:30;;;;;;;5.60;3.43;;;;;;;;;;5030772;28;20574;-71
2021/05/23 00:17:56;;;;;;;6.00;3.50;;;;;;;;;;5030899;28;20443;-72
2021/05/23 00:20:25;;;;;;;7.13;3.40;;;;;;;;;;5030625;28;20444;-71
2021/05/23 00:22:52;;;;;;;5.97;3.40;;;;;;;;;;5030030;28;20478;-72
2021/05/23 00:25:19;;;;;;;5.97;3.23;;;;;;;;;;5030069;28;20435;-71
2021/05/23 00:27:47;;;;;;;7.00;3.70;;;;;;;;;;5030255;28;20894;-70
2021/05/23 00:30:14;;;;;;;5.30;3.83;;;;;;;;;;5030556;28;20763;-71
2021/05/23 00:32:41;;;;;;;5.63;3.40;;;;;;;;;;5029294;28;20531;-71
2021/05/23 00:35:08;;;;;;;5.63;4.10;;;;;;;;;;5016414;28;20560;-72
2021/05/23 00:37:35;;;;;;;7.97;4.13;;;;;;;;;;5023274;28;20914;-72
2021/05/23 00:40:03;;;;;;;7.40;4.27;;;;;;;;;;5024036;28;20454;-71
2021/05/23 00:42:30;;;;;;;8.13;4.57;;;;;;;;;;5029620;28;20440;-70
2021/05/23 00:44:58;;;;;;;9.43;4.20;;;;;;;;;;5030437;28;20818;-71
2021/05/23 00:47:25;;;;;;;6.30;3.97;;;;;;;;;;5029993;28;20486;-70
2021/05/23 00:49:52;;;;;;;9.30;4.37;;;;;;;;;;5030264;28;20444;-71
2021/05/23 00:52:19;;;;;;;9.63;4.40;;;;;;;;;;5028708;28;20444;-75
2021/05/23 00:54:47;;;;;;;6.23;4.30;;;;;;;;;;5021466;28;20481;-72
2021/05/23 00:57:14;;;;;;;7.90;4.37;;;;;;;;;;5024679;28;20519;-71
2021/05/23 00:59:41;;;;;;;6.93;3.80;;;;;;;;;;5030257;28;20431;-72
2021/05/23 01:02:08;;;;;;;8.73;4.20;;;;;;;;;;5017531;28;20527;-72
2021/05/23 01:04:34;;;;;;;7.60;4.07;;;;;;;;;;5026289;28;20431;-69
2021/05/23 01:07:02;;;;;;;6.63;4.20;;;;;;;;;;5017993;28;20428;-71
2021/05/23 01:09:28;;;;;;;8.17;4.80;;;;;;;;;;5029766;28;20875;-71
2021/05/23 01:12:14;;;;;;;10.20;5.37;;;;;;;;;;5016336;28;20447;-71
2021/05/23 01:14:46;;;;;;;7.63;5.17;;;;;;;;;;5029679;28;20479;-70
2021/05/23 01:17:14;;;;;;;9.17;5.00;;;;;;;;;;5029781;28;20437;-72
2021/05/23 01:20:00;;;;;;;9.87;5.37;;;;;;;;;;5030174;28;20447;-69
2021/05/23 01:22:34;;;;;;;13.43;5.40;;;;;;;;;;5029599;28;20962;-74
2021/05/23 01:25:01;;;;;;;17.90;5.40;;;;;;;;;;5027073;28;20975;-73
2021/05/23 01:27:35;;;;;;;8.73;5.80;;;;;;;;;;5017868;28;20432;-73
2021/05/23 01:30:07;;;;;;;9.90;5.73;;;;;;;;;;5029078;28;20511;-71
2021/05/23 01:32:34;;;;;;;15.30;6.30;;;;;;;;;;5021819;28;20822;-72
2021/05/23 01:35:05;;;;;;;9.27;5.27;;;;;;;;;;5024172;28;20467;-73
2021/05/23 01:37:32;;;;;;;9.90;5.20;;;;;;;;;;5017292;28;20858;-72
2021/05/23 01:39:59;;;;;;;12.40;5.47;;;;;;;;;;5030882;28;20439;-69
2021/05/23 01:42:25;;;;;;;12.10;5.63;;;;;;;;;;5016116;28;20581;-73
2021/05/23 01:44:52;;;;;;;10.90;5.60;;;;;;;;;;5019382;28;20448;-72
2021/05/23 01:47:19;;;;;;;7.97;5.30;;;;;;;;;;5029882;28;20440;-71
2021/05/23 01:49:46;;;;;;;8.77;5.17;;;;;;;;;;5032614;28;20450;-72
2021/05/23 01:52:13;;;;;;;9.37;5.30;;;;;;;;;;5017082;28;20452;-73
2021/05/23 01:54:39;;;;;;;11.63;5.47;;;;;;;;;;5030765;28;20490;-73
2021/05/23 01:57:06;;;;;;;14.23;5.90;;;;;;;;;;5015578;28;20536;-73
2021/05/23 01:59:33;;;;;;;9.53;5.23;;;;;;;;;;5029987;28;20446;-73
2021/05/23 02:02:01;;;;;;;9.57;5.10;;;;;;;;;;5028429;28;20840;-72
2021/05/23 02:04:27;;;;;;;10.43;5.53;;;;;;;;;;5014611;28;20443;-72
2021/05/23 02:06:54;;;;;;;13.47;5.10;;;;;;;;;;5016640;28;20436;-72
2021/05/23 02:09:21;;;;;;;11.87;6.23;;;;;;;;;;5031702;28;20514;-71
2021/05/23 02:11:54;;;;;;;9.67;5.27;;;;;;;;;;5032584;28;20995;-73
2021/05/23 02:14:22;;;;;;;8.50;4.90;;;;;;;;;;5020088;28;20449;-72
2021/05/23 02:16:54;;;;;;;7.30;5.37;;;;;;;;;;5029849;28;20873;-72
2021/05/23 02:19:21;;;;;;;8.00;6.00;;;;;;;;;;5032751;28;20447;-72
2021/05/23 02:21:49;;;;;;;11.57;5.90;;;;;;;;;;5015723;28;20440;-72
2021/05/23 02:24:16;;;;;;;11.03;5.50;;;;;;;;;;5021718;28;20984;-72
2021/05/23 02:26:44;;;;;;;10.33;5.33;;;;;;;;;;5032708;28;20482;-71
2021/05/23 02:29:11;;;;;;;12.13;5.73;;;;;;;;;;5032323;28;20428;-69
2021/05/23 02:31:38;;;;;;;7.10;5.00;;;;;;;;;;5018474;28;20452;-72
2021/05/23 02:34:05;;;;;;;8.20;5.60;;;;;;;;;;5032506;28;20484;-72
2021/05/23 02:36:32;;;;;;;18.20;5.93;;;;;;;;;;5032264;28;20498;-72
2021/05/23 02:38:59;;;;;;;12.50;6.10;;;;;;;;;;5031646;28;20440;-72
2021/05/23 02:41:25;;;;;;;11.43;6.77;;;;;;;;;;5032361;28;20440;-70
2021/05/23 02:43:52;;;;;;;10.57;5.70;;;;;;;;;;5028393;28;20973;-72
2021/05/23 02:46:19;;;;;;;10.03;5.80;;;;;;;;;;5022770;28;20439;-72
2021/05/23 02:48:46;;;;;;;10.87;6.30;;;;;;;;;;5031778;28;20497;-73
2021/05/23 02:51:12;;;;;;;13.60;6.07;;;;;;;;;;5032485;28;20806;-71
2021/05/23 02:53:39;;;;;;;10.80;5.87;;;;;;;;;;5018099;28;20476;-71
2021/05/23 02:56:06;;;;;;;13.67;5.90;;;;;;;;;;5031759;28;20471;-71
2021/05/23 02:58:32;;;;;;;8.43;5.33;;;;;;;;;;5020027;28;20440;-73
2021/05/23 03:00:59;;;;;;;11.73;5.80;;;;;;;;;;5029585;28;20851;-71
2021/05/23 03:03:26;;;;;;;14.13;6.43;;;;;;;;;;5022180;28;20524;-72
2021/05/23 03:05:53;;;;;;;14.03;6.20;;;;;;;;;;5015303;28;20860;-73
2021/05/23 03:08:19;;;;;;;13.67;6.03;;;;;;;;;;5029669;28;20447;-72
2021/05/23 03:10:48;;;;;;;12.70;5.67;;;;;;;;;;5031945;28;20454;-73
2021/05/23 03:13:15;;;;;;;11.37;5.90;;;;;;;;;;5028234;28;20440;-72
2021/05/23 03:15:42;;;;;;;12.27;5.70;;;;;;;;;;5020684;28;20475;-73
2021/05/23 03:18:10;;;;;;;10.60;5.20;;;;;;;;;;5029801;28;20450;-73
2021/05/23 03:20:38;;;;;;;15.50;6.17;;;;;;;;;;5019305;28;21135;-71
2021/05/23 03:23:05;;;;;;;14.70;5.77;;;;;;;;;;5030951;28;20436;-73
2021/05/23 03:25:32;;;;;;;9.17;5.47;;;;;;;;;;5025574;28;20566;-71
2021/05/23 03:27:59;;;;;;;14.17;6.13;;;;;;;;;;5010977;28;20618;-72
2021/05/23 03:30:27;;;;;;;10.00;5.63;;;;;;;;;;5029687;28;20778;-72
2021/05/23 03:32:54;;;;;;;12.53;5.90;;;;;;;;;;5031064;28;20502;-73
2021/05/23 03:35:21;;;;;;;10.97;6.03;;;;;;;;;;5031096;28;20475;-71
2021/05/23 03:37:48;;;;;;;10.67;6.47;;;;;;;;;;5030684;28;20439;-72
2021/05/23 03:40:16;;;;;;;11.03;6.33;;;;;;;;;;5030124;28;20427;-71
2021/05/23 03:42:44;;;;;;;10.47;6.90;;;;;;;;;;5011018;28;20445;-70
2021/05/23 03:45:11;;;;;;;11.03;6.07;;;;;;;;;;5011222;28;20437;-72
2021/05/23 03:47:38;;;;;;;15.57;6.90;;;;;;;;;;5016865;28;20435;-72
2021/05/23 03:50:06;;;;;;;16.80;6.87;;;;;;;;;;5031301;28;20440;-74
2021/05/23 03:52:33;;;;;;;14.93;7.60;;;;;;;;;;5026460;28;20448;-70
2021/05/23 03:55:00;;;;;;;9.07;6.80;;;;;;;;;;5021520;28;20485;-73
2021/05/23 03:57:26;;;;;;;12.47;6.13;;;;;;;;;;5027578;28;20449;-72
2021/05/23 03:59:54;;;;;;;12.90;6.73;;;;;;;;;;5020410;28;20460;-72
2021/05/23 04:02:21;;;;;;;12.10;7.43;;;;;;;;;;5030166;28;20574;-73
2021/05/23 04:04:49;;;;;;;15.23;7.80;;;;;;;;;;5024200;28;20437;-72
2021/05/23 04:07:18;;;;;;;13.87;8.00;;;;;;;;;;5020092;28;20455;-73
2021/05/23 04:09:47;;;;;;;12.20;8.50;;;;;;;;;;5030564;28;20822;-71
2021/05/23 04:12:22;;;;;;;16.37;7.53;;;;;;;;;;5030321;28;20530;-73
2021/05/23 04:14:49;;;;;;;10.47;7.43;;;;;;;;;;5029131;28;20440;-71
2021/05/23 04:17:16;;;;;;;11.00;7.37;;;;;;;;;;5030079;28;20439;-74
2021/05/23 04:19:43;;;;;;;9.40;6.50;;;;;;;;;;5016700;28;20449;-72
2021/05/23 04:22:10;;;;;;;13.47;7.03;;;;;;;;;;5030263;28;20481;-74
2021/05/23 04:24:40;;;;;;;11.03;7.57;;;;;;;;;;5030371;28;20887;-70
2021/05/23 04:27:07;;;;;;;10.57;6.07;;;;;;;;;;5016508;28;20810;-71
2021/05/23 04:29:34;;;;;;;11.30;6.00;;;;;;;;;;5029924;28;20533;-73
2021/05/23 04:32:02;;;;;;;7.93;5.77;;;;;;;;;;5028267;28;20440;-72
2021/05/23 04:34:29;;;;;;;10.43;5.50;;;;;;;;;;5029756;28;20471;-72
2021/05/23 04:36:56;;;;;;;9.10;5.70;;;;;;;;;;5016060;28;20484;-74
2021/05/23 04:39:22;;;;;;;11.40;5.67;;;;;;;;;;5030064;28;20466;-73
2021/05/23 04:41:49;;;;;;;14.87;6.47;;;;;;;;;;5029685;28;20451;-73
2021/05/23 04:44:16;;;;;;;10.40;5.77;;;;;;;;;;5015957;28;21632;-73
2021/05/23 04:46:43;;;;;;;9.80;5.87;;;;;;;;;;5030168;28;20466;-72
2021/05/23 04:49:10;;;;;;;8.83;6.27;;;;;;;;;;5027988;28;20551;-70
2021/05/23 04:51:37;;;;;;;9.30;6.10;;;;;;;;;;5031203;28;20825;-71
2021/05/23 04:54:04;;;;;;;10.90;5.67;;;;;;;;;;5012309;28;20567;-72
2021/05/23 04:56:30;;;;;;;9.20;6.00;;;;;;;;;;5019002;28;21034;-73
2021/05/23 04:58:57;;;;;;;12.47;6.00;;;;;;;;;;5028046;28;20475;-71
2021/05/23 05:01:24;;;;;;;10.33;6.03;;;;;;;;;;5016976;28;20546;-72
2021/05/23 05:03:50;;;;;;;9.27;5.40;;;;;;;;;;5029393;28;20812;-70
2021/05/23 05:06:17;;;;;;;13.83;6.10;;;;;;;;;;5012920;28;20448;-71
2021/05/23 05:08:46;;;;;;;10.87;7.30;;;;;;;;;;5029612;28;20968;-72
2021/05/23 05:11:12;;;;;;;13.37;7.00;;;;;;;;;;5029639;28;20444;-72
2021/05/23 05:13:39;;;;;;;8.87;7.43;;;;;;;;;;5015794;28;20526;-72
2021/05/23 05:16:08;;;;;;;11.63;7.03;;;;;;;;;;5030015;28;21054;-71
2021/05/23 05:18:35;;;;;;;9.97;6.80;;;;;;;;;;5029575;28;20443;-71
2021/05/23 05:21:03;;;;;;;11.43;6.27;;;;;;;;;;5019238;28;20528;-71
2021/05/23 05:23:30;;;;;;;11.27;6.67;;;;;;;;;;5012660;28;20447;-71
2021/05/23 05:25:58;;;;;;;10.87;6.20;;;;;;;;;;5020545;28;20871;-72
2021/05/23 05:28:25;;;;;;;9.30;6.93;;;;;;;;;;5023163;28;20447;-71
2021/05/23 05:30:52;;;;;;;10.40;6.87;;;;;;;;;;5017906;28;20451;-71
2021/05/23 05:33:18;;;;;;;7.73;6.47;;;;;;;;;;5029970;28;20444;-72
2021/05/23 05:35:45;;;;;;;9.53;6.03;;;;;;;;;;5031131;28;20464;-72
2021/05/23 05:38:13;;;;;;;15.83;6.47;;;;;;;;;;5029165;28;20482;-71
2021/05/23 05:40:41;;;;;;;15.20;6.87;;;;;;;;;;5027762;28;20440;-71
2021/05/23 05:43:08;;;;;;;10.53;6.47;;;;;;;;;;5028385;28;20448;-72
2021/05/23 05:45:34;;;;;;;13.40;7.03;;;;;;;;;;5029976;28;20432;-74
2021/05/23 05:48:01;;;;;;;13.33;6.90;;;;;;;;;;5013115;28;20973;-75
2021/05/23 05:50:28;;;;;;;15.27;6.83;;;;;;;;;;5027781;28;20443;-73
2021/05/23 05:52:54;;;;;;;13.97;6.37;;;;;;;;;;5031000;28;20452;-73
2021/05/23 05:55:21;;;;;;;11.20;6.67;;;;;;;;;;5033109;28;20439;-72
2021/05/23 05:57:48;;;;;;;10.23;6.33;;;;;;;;;;5018806;28;20455;-70
2021/05/23 06:00:15;;;;;;;14.37;6.50;;;;;;;;;;5032941;28;20444;-74
2021/05/23 06:02:42;;;;;;;15.77;7.03;;;;;;;;;;5029199;28;20503;-73
2021/05/23 06:05:09;;;;;;;13.10;6.50;;;;;;;;;;5016204;28;20437;-71
2021/05/23 06:07:35;;;;;;;11.30;6.27;;;;;;;;;;5025200;28;20612;-73
2021/05/23 06:10:03;;;;;;;10.67;6.53;;;;;;;;;;5018836;28;20965;-72
2021/05/23 06:12:30;;;;;;;10.87;7.03;;;;;;;;;;5021907;28;20678;-73
2021/05/23 06:14:56;;;;;;;9.10;7.00;;;;;;;;;;5015538;28;20448;-71
2021/05/23 06:17:23;;;;;;;11.20;6.93;;;;;;;;;;5023678;28;20490;-72
2021/05/23 06:19:50;;;;;;;13.10;6.93;;;;;;;;;;5027784;28;20451;-71
2021/05/23 06:22:17;;;;;;;9.67;6.67;;;;;;;;;;5032023;28;20442;-72
2021/05/23 06:24:43;;;;;;;9.70;6.17;;;;;;;;;;5017929;28;20448;-71
2021/05/23 06:27:10;;;;;;;11.13;6.90;;;;;;;;;;5031834;28;20440;-73
2021/05/23 06:29:37;;;;;;;10.07;6.90;;;;;;;;;;5032756;28;20444;-72
2021/05/23 06:32:06;;;;;;;12.10;7.40;;;;;;;;;;5018508;28;20436;-71
2021/05/23 06:34:33;;;;;;;8.77;6.47;;;;;;;;;;5032565;28;20446;-73
2021/05/23 06:37:00;;;;;;;9.80;6.03;;;;;;;;;;5018216;28;21184;-72
2021/05/23 06:39:27;;;;;;;11.87;6.63;;;;;;;;;;5024690;28;20468;-75
2021/05/23 06:41:53;;;;;;;10.33;6.90;;;;;;;;;;5013355;28;20985;-72
2021/05/23 06:44:20;;;;;;;11.73;6.77;;;;;;;;;;5025456;28;20437;-73
2021/05/23 06:46:47;;;;;;;16.20;6.10;;;;;;;;;;5012356;28;20440;-73
2021/05/23 06:49:14;;;;;;;14.47;6.70;;;;;;;;;;5012016;28;20441;-72
2021/05/23 06:51:41;;;;;;;13.23;7.00;;;;;;;;;;5012684;28;20444;-72
2021/05/23 06:54:09;;;;;;;11.27;7.70;;;;;;;;;;5027945;28;20496;-70
2021/05/23 06:56:36;;;;;;;12.40;7.00;;;;;;;;;;5022586;28;20304;-73
2021/05/23 06:59:03;;;;;;;19.67;7.67;;;;;;;;;;5013596;28;20892;-73
2021/05/23 07:01:31;;;;;;;13.90;7.30;;;;;;;;;;5031883;28;20440;-71
2021/05/23 07:03:59;;;;;;;15.63;6.87;;;;;;;;;;5031407;28;20197;-72
2021/05/23 07:06:25;;;;;;;16.60;7.20;;;;;;;;;;5014917;28;20277;-73
2021/05/23 07:08:52;;;;;;;9.83;6.77;;;;;;;;;;5031280;28;20239;-72
2021/05/23 07:11:19;;;;;;;9.67;6.10;;;;;;;;;;5017859;28;20441;-72
2021/05/23 07:13:47;;;;;;;11.53;6.00;;;;;;;;;;5031201;28;20201;-71
2021/05/23 07:16:16;;;;;;;12.27;5.83;;;;;;;;;;5018461;28;20225;-72
2021/05/23 07:18:43;;;;;;;6.70;4.83;;;;;;;;;;5018148;28;20212;-72
2021/05/23 07:21:12;;;;;;;12.17;5.90;;;;;;;;;;5032184;28;20205;-71
2021/05/23 07:23:39;;;;;;;10.60;5.10;;;;;;;;;;5030789;28;20444;-71
2021/05/23 07:26:07;;;;;;;11.53;5.87;;;;;;;;;;5032115;28;20185;-72
2021/05/23 07:28:34;;;;;;;8.10;5.50;;;;;;;;;;5030768;28;20658;-71
2021/05/23 07:31:01;;;;;;;17.57;6.40;;;;;;;;;;5031524;28;20432;-73
2021/05/23 07:33:29;;;;;;;13.00;6.00;;;;;;;;;;5027904;28;20197;-71
2021/05/23 07:35:56;;;;;;;13.80;6.07;;;;;;;;;;5019269;28;20252;-70
2021/05/23 07:38:23;;;;;;;7.97;5.33;;;;;;;;;;5030953;28;20197;-73
2021/05/23 07:40:50;;;;;;;6.97;4.83;;;;;;;;;;5015768;28;20200;-72
2021/05/23 07:43:17;;;;;;;8.10;4.83;;;;;;;;;;5030908;28;20197;-72
2021/05/23 07:45:43;;;;;;;9.57;5.73;;;;;;;;;;5031000;28;20197;-71
2021/05/23 07:48:10;;;;;;;7.17;4.73;;;;;;;;;;5030843;28;20193;-72
2021/05/23 07:50:37;;;;;;;9.00;4.60;;;;;;;;;;5030971;28;20201;-73
2021/05/23 07:53:04;;;;;;;9.67;5.00;;;;;;;;;;5030375;28;20591;-73
2021/05/23 07:55:31;;;;;;;7.80;4.47;;;;;;;;;;5030622;28;20215;-72
2021/05/23 07:57:57;;;;;;;6.77;4.50;;;;;;;;;;5030753;28;20216;-73
2021/05/23 08:00:25;;;;;;;10.23;4.93;;;;;;;;;;5030708;28;20271;-74
2021/05/23 08:02:57;;;;;;;10.57;4.80;;;;;;;;;;5033308;28;20262;-72
2021/05/23 08:05:24;;;;;;;7.30;4.80;;;;;;;;;;5022550;28;20202;-72
2021/05/23 08:07:53;;;;;;;9.80;4.90;;;;;;;;;;5024807;28;20209;-72
2021/05/23 08:10:20;;;;;;;11.37;6.10;;;;;;;;;;5030612;28;20217;-72
2021/05/23 08:12:47;;;;;;;12.20;6.03;;;;;;;;;;5017453;28;20694;-73
2021/05/23 08:15:14;;;;;;;11.57;6.10;;;;;;;;;;5024540;28;20654;-72
2021/05/23 08:17:42;;;;;;;7.13;5.13;;;;;;;;;;5021533;28;20622;-71
2021/05/23 08:20:09;;;;;;;8.73;5.23;;;;;;;;;;5030350;28;20197;-71
2021/05/23 08:22:36;;;;;;;11.67;6.17;;;;;;;;;;5029404;28;20224;-72
2021/05/23 08:25:03;;;;;;;15.83;5.90;;;;;;;;;;5014371;28;20657;-72
2021/05/23 08:27:30;;;;;;;12.50;5.90;;;;;;;;;;5018775;28;20193;-72
2021/05/23 08:29:57;;;;;;;10.43;5.93;;;;;;;;;;5030711;28;20288;-71
2021/05/23 08:32:23;;;;;;;21.20;6.97;;;;;;;;;;5028617;28;20197;-72
2021/05/23 08:34:50;;;;;;;15.97;6.47;;;;;;;;;;5018023;28;20201;-70
2021/05/23 08:37:17;;;;;;;16.20;5.87;;;;;;;;;;5014233;28;20711;-71
2021/05/23 08:39:44;;;;;;;14.03;6.10;;;;;;;;;;5030479;28;20225;-71
2021/05/23 08:42:11;;;;;;;19.97;6.27;;;;;;;;;;5029457;28;20197;-72
2021/05/23 08:44:38;;;;;;;14.17;6.07;;;;;;;;;;5028556;28;20566;-72
2021/05/23 08:47:04;;;;;;;13.90;6.00;;;;;;;;;;5028608;28;20578;-71
2021/05/23 08:49:31;;;;;;;14.03;6.10;;;;;;;;;;5017413;28;20277;-72
2021/05/23 08:52:01;;;;;;;16.10;5.97;;;;;;;;;;5015738;28;20206;-71
2021/05/23 08:54:28;;;;;;;11.73;5.80;;;;;;;;;;5023467;28;20253;-71
2021/05/23 08:56:55;;;;;;;9.30;4.53;;;;;;;;;;5022639;28;20228;-71
2021/05/23 08:59:22;;;;;;;8.27;4.20;;;;;;;;;;5011115;28;20201;-72
2021/05/23 09:01:49;;;;;;;12.13;4.77;;;;;;;;;;5011171;28;20205;-71
2021/05/23 09:04:19;;;;;;;5.57;3.97;;;;;;;;;;5011218;28;20209;-71
2021/05/23 09:06:46;;;;;;;6.30;3.97;;;;;;;;;;5015900;28;20663;-71
2021/05/23 09:09:14;;;;;;;8.00;3.90;;;;;;;;;;5017787;28;20702;-72
2021/05/23 09:11:54;;;;;;;9.97;4.27;;;;;;;;;;5027704;28;20197;-73
2021/05/23 09:14:31;;;;;;;7.50;4.07;;;;;;;;;;5029635;28;20239;-71
2021/05/23 09:16:58;;;;;;;8.53;4.00;;;;;;;;;;5010693;28;20313;-74
2021/05/23 09:19:26;;;;;;;5.43;3.40;;;;;;;;;;5023571;28;20197;-71
2021/05/23 09:21:53;;;;;;;4.87;3.60;;;;;;;;;;5033932;28;20651;-71
2021/05/23 09:24:20;;;;;;;7.00;3.37;;;;;;;;;;5033446;28;20630;-71
2021/05/23 09:26:48;;;;;;;6.47;3.63;;;;;;;;;;5033609;28;20288;-73
2021/05/23 09:29:17;;;;;;;4.90;3.40;;;;;;;;;;5033382;28;20199;-72
2021/05/23 09:31:47;;;;;;;5.07;3.10;;;;;;;;;;5033210;28;20193;-71
2021/05/23 09:34:23;;;;;;;6.97;3.40;;;;;;;;;;5033161;28;20200;-72
2021/05/23 09:36:50;;;;;;;7.37;4.10;;;;;;;;;;5033228;28;20207;-73
2021/05/23 09:39:18;;;;;;;5.23;3.47;;;;;;;;;;5033538;28;20197;-73
2021/05/23 09:41:46;;;;;;;5.60;3.53;;;;;;;;;;5033454;28;20201;-70
2021/05/23 09:44:17;;;;;;;5.83;3.60;;;;;;;;;;5018475;28;20746;-71
2021/05/23 09:46:55;;;;;;;5.47;3.43;;;;;;;;;;5033253;28;20221;-71
2021/05/23 09:49:22;;;;;;;6.13;3.27;;;;;;;;;;5019432;28;20419;-72
2021/05/23 09:51:50;;;;;;;8.93;3.47;;;;;;;;;;5033579;28;20193;-73
2021/05/23 09:54:17;;;;;;;7.53;3.40;;;;;;;;;;5013841;28;20722;-72
2021/05/23 09:56:44;;;;;;;9.63;3.63;;;;;;;;;;5024089;28;20216;-72
2021/05/23 09:59:37;;;;;;;7.17;3.40;;;;;;;;;;5029354;28;20197;-71
2021/05/23 10:02:08;;;;;;;8.27;3.50;;;;;;;;;;5024893;28;20209;-71
2021/05/23 10:04:35;;;;;;;7.37;3.60;;;;;;;;;;5028450;28;20224;-71
2021/05/23 10:07:03;;;;;;;5.20;3.03;;;;;;;;;;5013406;28;20224;-72
2021/05/23 10:09:30;;;;;;;6.67;3.57;;;;;;;;;;5025361;28;20259;-71
2021/05/23 10:11:58;;;;;;;5.23;3.37;;;;;;;;;;5032683;28;20208;-73
2021/05/23 10:14:25;;;;;;;4.43;3.80;;;;;;;;;;5032586;28;20280;-72
2021/05/23 10:16:52;;;;;;;4.63;3.83;;;;;;;;;;5017289;28;20216;-71
2021/05/23 10:19:21;;;;;;;4.93;3.70;;;;;;;;;;5032520;28;20197;-72
2021/05/23 10:21:50;;;;;;;5.87;3.63;;;;;;;;;;5032746;28;20193;-72
2021/05/23 10:24:22;;;;;;;7.57;3.43;;;;;;;;;;5032348;28;20205;-71
2021/05/23 10:26:54;;;;;;;3.83;3.30;;;;;;;;;;5031106;28;20201;-71
2021/05/23 10:29:22;;;;;;;7.83;3.50;;;;;;;;;;5030051;28;20196;-71
2021/05/23 10:31:49;;;;;;;4.47;3.83;;;;;;;;;;5030625;28;20189;-73
2021/05/23 10:34:15;;;;;;;7.40;5.40;;;;;;;;;;5012286;28;20285;-71
2021/05/23 10:36:44;;;;;;;6.77;3.70;;;;;;;;;;5026549;28;20205;-71
2021/05/23 10:39:12;;;;;;;5.67;3.70;;;;;;;;;;5032468;28;20259;-72
2021/05/23 10:41:39;;;;;;;5.73;3.80;;;;;;;;;;5032481;28;20638;-71
2021/05/23 10:44:24;;;;;;;10.87;3.33;;;;;;;;;;5019294;28;20193;-70
2021/05/23 10:46:52;;;;;;;7.77;2.87;;;;;;;;;;5018834;28;20201;-71
2021/05/23 10:49:19;;;;;;;4.20;2.80;;;;;;;;;;5026283;28;20209;-71
2021/05/23 10:51:52;;;;;;;4.30;2.93;;;;;;;;;;5024724;28;20219;-71
2021/05/23 10:54:19;;;;;;;6.53;3.10;;;;;;;;;;5012276;28;20225;-71
2021/05/23 10:56:46;;;;;;;5.27;3.30;;;;;;;;;;5022234;28;20203;-71
2021/05/23 10:59:14;;;;;;;6.50;2.97;;;;;;;;;;5031276;28;20299;-72
2021/05/23 11:01:52;;;;;;;5.07;2.80;;;;;;;;;;5031879;28;20225;-72
2021/05/23 11:04:22;;;;;;;4.17;3.00;;;;;;;;;;5031259;28;20204;-70
2021/05/23 11:06:49;;;;;;;10.83;3.70;;;;;;;;;;5032302;28;20199;-69
2021/05/23 11:09:28;;;;;;;6.93;2.90;;;;;;;;;;5031384;28;20622;-70
2021/05/23 11:12:05;;;;;;;8.07;3.37;;;;;;;;;;5031880;28;20208;-72
2021/05/23 11:14:31;;;;;;;10.80;3.00;;;;;;;;;;5031139;28;20697;-71
2021/05/23 11:16:58;;;;;;;5.73;2.97;;;;;;;;;;5017638;28;20216;-71
2021/05/23 11:19:29;;;;;;;6.97;3.10;;;;;;;;;;5019507;28;20586;-71
2021/05/23 11:21:57;;;;;;;3.93;3.00;;;;;;;;;;5011714;28;20277;-70
2021/05/23 11:24:27;;;;;;;3.40;3.10;;;;;;;;;;5026650;28;20746;-71
2021/05/23 11:27:09;;;;;;;7.10;2.83;;;;;;;;;;5015454;28;20283;-71
2021/05/23 11:29:35;;;;;;;5.73;3.00;;;;;;;;;;5019596;28;20206;-70
2021/05/23 11:32:10;;;;;;;7.40;2.70;;;;;;;;;;5025436;28;20284;-71
2021/05/23 11:34:37;;;;;;;6.83;2.60;;;;;;;;;;5022598;28;20221;-74
2021/05/23 11:37:03;;;;;;;4.60;2.37;;;;;;;;;;5031021;28;20212;-72
2021/05/23 11:39:30;;;;;;;4.27;2.20;;;;;;;;;;5030884;28;20205;-71
2021/05/23 11:41:58;;;;;;;3.30;2.70;;;;;;;;;;5029374;28;20193;-70
2021/05/23 11:44:38;;;;;;;3.30;2.37;;;;;;;;;;5010596;28;20194;-69
2021/05/23 11:47:05;;;;;;;2.63;2.20;;;;;;;;;;5024965;28;20228;-72
2021/05/23 11:49:34;;;;;;;3.33;2.20;;;;;;;;;;5011052;28;20202;-71
2021/05/23 11:52:03;;;;;;;8.00;2.50;;;;;;;;;;5024966;28;20200;-71
2021/05/23 11:54:30;;;;;;;5.97;2.37;;;;;;;;;;5016855;28;20271;-70
2021/05/23 11:56:57;;;;;;;5.30;2.33;;;;;;;;;;5029361;28;20741;-70
2021/05/23 11:59:29;;;;;;;7.20;2.70;;;;;;;;;;5025565;28;20205;-71
2021/05/23 12:01:56;;;;;;;6.80;3.03;;;;;;;;;;5022455;28;20315;-70
2021/05/23 12:04:24;;;;;;;4.70;2.77;;;;;;;;;;5027583;28;20198;-73
2021/05/23 12:06:52;;;;;;;5.50;2.70;;;;;;;;;;5017039;28;20194;-71
2021/05/23 12:09:23;;;;;;;5.30;2.47;;;;;;;;;;5030306;28;20197;-71
2021/05/23 12:11:56;;;;;;;4.03;2.60;;;;;;;;;;5025687;28;20204;-71
2021/05/23 12:14:27;;;;;;;5.60;2.60;;;;;;;;;;5023027;28;20193;-70
2021/05/23 12:16:58;;;;;;;5.87;2.57;;;;;;;;;;5030201;28;20197;-71
2021/05/23 12:19:47;;;;;;;3.83;2.57;;;;;;;;;;5030199;28;20205;-71
2021/05/23 12:22:21;;;;;;;4.10;2.10;;;;;;;;;;5010302;28;20200;-72
2021/05/23 12:24:49;;;;;;;6.67;2.40;;;;;;;;;;5024578;28;20204;-69
2021/05/23 12:27:26;;;;;;;2.17;1.97;;;;;;;;;;5016235;28;20315;-69
2021/05/23 12:29:53;;;;;;;4.57;2.30;;;;;;;;;;5030657;28;20235;-70
2021/05/23 12:32:20;;;;;;;6.10;2.50;;;;;;;;;;5016067;28;20689;-71
2021/05/23 12:34:47;;;;;;;4.87;3.00;;;;;;;;;;5030336;28;20663;-70
2021/05/23 12:37:15;;;;;;;5.20;2.60;;;;;;;;;;5029425;28;20197;-70
2021/05/23 12:39:42;;;;;;;5.27;2.60;;;;;;;;;;5030468;28;20200;-70
2021/05/23 12:42:08;;;;;;;7.00;2.53;;;;;;;;;;5030225;28;20196;-69
2021/05/23 12:44:35;;;;;;;3.20;2.10;;;;;;;;;;5030496;28;20194;-70
2021/05/23 12:47:10;;;;;;;2.60;2.10;;;;;;;;;;5016089;28;20200;-69
2021/05/23 12:49:44;;;;;;;5.23;2.10;;;;;;;;;;5030544;28;20762;-71
2021/05/23 12:52:13;;;;;;;3.53;2.30;;;;;;;;;;5028147;28;20280;-69
2021/05/23 12:54:41;;;;;;;4.73;2.47;;;;;;;;;;5033114;28;20315;-69
2021/05/23 12:57:12;;;;;;;3.27;2.40;;;;;;;;;;5029456;28;20201;-70
2021/05/23 12:59:42;;;;;;;16.80;2.67;;;;;;;;;;5030282;28;20193;-70
2021/05/23 13:02:10;;;;;;;3.93;1.97;;;;;;;;;;5029880;28;20270;-71
2021/05/23 13:04:38;;;;;;;3.50;2.13;;;;;;;;;;5024279;28;20679;-71
2021/05/23 13:07:06;;;;;;;7.03;2.30;;;;;;;;;;5018420;28;20212;-71
2021/05/23 13:09:40;;;;;;;3.80;2.50;;;;;;;;;;5029200;28;20189;-70
2021/05/23 13:12:07;;;;;;;6.40;2.50;;;;;;;;;;5030200;28;20279;-71
2021/05/23 13:14:35;;;;;;;4.57;2.57;;;;;;;;;;5029716;28;20196;-72
2021/05/23 13:17:05;;;;;;;4.17;2.47;;;;;;;;;;5030005;28;20215;-70
2021/05/23 13:19:51;;;;;;;7.77;2.60;;;;;;;;;;5029751;28;20220;-71
2021/05/23 13:22:17;;;;;;;4.30;2.17;;;;;;;;;;5029402;28;20648;-72
2021/05/23 13:24:45;;;;;;;4.10;2.30;;;;;;;;;;5029660;28;20205;-70
2021/05/23 13:27:13;;;;;;;5.47;2.27;;;;;;;;;;5023841;28;20281;-69
2021/05/23 13:29:40;;;;;;;4.93;2.20;;;;;;;;;;5021803;28;20189;-70
2021/05/23 13:32:07;;;;;;;6.37;2.03;;;;;;;;;;5025204;28;20229;-69
2021/05/23 13:34:34;;;;;;;4.13;2.27;;;;;;;;;;5020271;28;20284;-71
2021/05/23 13:37:01;;;;;;;2.83;1.90;;;;;;;;;;5027571;28;20189;-72
2021/05/23 13:39:28;;;;;;;2.70;2.07;;;;;;;;;;5009405;28;20229;-69
2021/05/23 13:41:54;;;;;;;3.83;2.23;;;;;;;;;;5010386;28;20197;-70
2021/05/23 13:44:21;;;;;;;5.90;2.00;;;;;;;;;;5022085;28;20708;-72
2021/05/23 13:46:49;;;;;;;4.20;2.00;;;;;;;;;;5023131;28;20292;-71
2021/05/23 13:49:16;;;;;;;2.73;2.20;;;;;;;;;;5028621;28;20667;-70
2021/05/23 13:51:44;;;;;;;3.37;2.30;;;;;;;;;;5029550;28;20260;-70
2021/05/23 13:54:12;;;;;;;4.10;2.03;;;;;;;;;;5028448;28;20243;-69
2021/05/23 13:56:40;;;;;;;4.27;2.00;;;;;;;;;;5029461;28;20263;-69
2021/05/23 13:59:07;;;;;;;3.67;2.03;;;;;;;;;;5028373;28;20695;-69
2021/05/23 14:01:34;;;;;;;2.17;1.97;;;;;;;;;;5028463;28;20232;-70
2021/05/23 14:04:01;;;;;;;3.80;2.20;;;;;;;;;;5027685;28;20190;-70
2021/05/23 14:06:29;;;;;;;5.23;2.03;;;;;;;;;;5016432;28;20471;-69
2021/05/23 14:08:55;;;;;;;5.57;2.13;;;;;;;;;;5023461;28;20268;-69
2021/05/23 14:11:22;;;;;;;4.60;2.20;;;;;;;;;;5028221;28;20197;-71
2021/05/23 14:13:49;;;;;;;3.90;2.00;;;;;;;;;;5032644;28;20185;-71
2021/05/23 14:16:16;;;;;;;5.67;1.87;;;;;;;;;;5019553;28;20198;-69
2021/05/23 14:18:43;;;;;;;5.70;1.77;;;;;;;;;;5031798;28;20232;-70
2021/05/23 14:21:13;;;;;;;3.87;2.03;;;;;;;;;;5031960;28;20312;-72
2021/05/23 14:23:41;;;;;;;4.60;1.90;;;;;;;;;;5031995;28;20192;-71
2021/05/23 14:26:07;;;;;;;3.70;2.10;;;;;;;;;;5032925;28;20225;-70
2021/05/23 14:28:34;;;;;;;3.67;2.03;;;;;;;;;;5031642;28;20189;-72
2021/05/23 14:31:01;;;;;;;2.40;1.83;;;;;;;;;;5032857;28;20233;-71
2021/05/23 14:33:28;;;;;;;3.23;1.90;;;;;;;;;;5031926;28;20247;-69
2021/05/23 14:35:55;;;;;;;3.07;2.00;;;;;;;;;;5032172;28;20272;-70
2021/05/23 14:38:22;;;;;;;5.37;1.80;;;;;;;;;;5018238;28;20220;-70
2021/05/23 14:40:49;;;;;;;4.23;1.77;;;;;;;;;;5032223;28;20190;-70
2021/05/23 14:43:16;;;;;;;5.23;2.00;;;;;;;;;;5031928;28;20729;-70